sensor_id;sensor_type;location;lat;lon;timestamp;pressure;altitude;pressure_sealevel;temperature
12854;BMP180;6495;51.808;7.478;2022-12-20T00:02:38;100957.00;;;8.90
12854;BMP180;6495;51.808;7.478;2022-12-20T00:05:25;100960.00;;;9.00
12854;BMP180;6495;51.808;7.478;2022-12-20T00:08:12;100957.00;;;9.00
12854;BMP180;6495;51.808;7.478;2022-12-20T00:11:01;100971.00;;;9.00
12854;BMP180;6495;51.808;7.478;2022-12-20T00:13:49;100968.00;;;9.00
12854;BMP180;6495;51.808;7.478;2022-12-20T00:16:36;100977.00;;;9.10
12854;BMP180;6495;51.808;7.478;2022-12-20T00:19:24;100980.00;;;9.10
12854;BMP180;6495;51.808;7.478;2022-12-20T00:22:11;100965.00;;;9.10
12854;BMP180;6495;51.808;7.478;2022-12-20T00:24:58;100961.00;;;9.10
12854;BMP180;6495;51.808;7.478;2022-12-20T00:27:44;100966.00;;;9.10
12854;BMP180;6495;51.808;7.478;2022-12-20T00:30:31;100960.00;;;9.10
12854;BMP180;6495;51.808;7.478;2022-12-20T00:33:18;100946.00;;;9.10
12854;BMP180;6495;51.808;7.478;2022-12-20T00:36:08;100949.00;;;9.20
12854;BMP180;6495;51.808;7.478;2022-12-20T00:38:57;100941.00;;;9.20
12854;BMP180;6495;51.808;7.478;2022-12-20T00:41:44;100928.00;;;9.20
12854;BMP180;6495;51.808;7.478;2022-12-20T00:44:31;100929.00;;;9.20
12854;BMP180;6495;51.808;7.478;2022-12-20T00:47:18;100923.00;;;9.20
12854;BMP180;6495;51.808;7.478;2022-12-20T00:50:06;100921.00;;;9.30
12854;BMP180;6495;51.808;7.478;2022-12-20T00:52:55;100930.00;;;9.30
12854;BMP180;6495;51.808;7.478;2022-12-20T00:55:42;100919.00;;;9.30
12854;BMP180;6495;51.808;7.478;2022-12-20T00:58:31;100910.00;;;9.30
12854;BMP180;6495;51.808;7.478;2022-12-20T01:01:21;100918.00;;;9.30
12854;BMP180;6495;51.808;7.478;2022-12-20T01:04:08;100930.00;;;9.40
12854;BMP180;6495;51.808;7.478;2022-12-20T01:06:55;100920.00;;;9.30
12854;BMP180;6495;51.808;7.478;2022-12-20T01:09:43;100914.00;;;9.40
12854;BMP180;6495;51.808;7.478;2022-12-20T01:12:30;100919.00;;;9.40
12854;BMP180;6495;51.808;7.478;2022-12-20T01:15:16;100909.00;;;9.40
12854;BMP180;6495;51.808;7.478;2022-12-20T01:18:03;100922.00;;;9.40
12854;BMP180;6495;51.808;7.478;2022-12-20T01:21:00;100924.00;;;9.50
12854;BMP180;6495;51.808;7.478;2022-12-20T01:23:47;100914.00;;;9.50
12854;BMP180;6495;51.808;7.478;2022-12-20T01:26:35;100914.00;;;9.50
12854;BMP180;6495;51.808;7.478;2022-12-20T01:29:22;100927.00;;;9.50
12854;BMP180;6495;51.808;7.478;2022-12-20T01:32:09;100921.00;;;9.50
12854;BMP180;6495;51.808;7.478;2022-12-20T01:34:56;100926.00;;;9.60
12854;BMP180;6495;51.808;7.478;2022-12-20T01:37:43;100928.00;;;9.60
12854;BMP180;6495;51.808;7.478;2022-12-20T01:40:29;100922.00;;;9.60
12854;BMP180;6495;51.808;7.478;2022-12-20T01:43:20;100919.00;;;9.60
12854;BMP180;6495;51.808;7.478;2022-12-20T01:46:07;100919.00;;;9.60
12854;BMP180;6495;51.808;7.478;2022-12-20T01:48:59;100917.00;;;9.70
12854;BMP180;6495;51.808;7.478;2022-12-20T01:51:52;100916.00;;;9.70
12854;BMP180;6495;51.808;7.478;2022-12-20T01:54:45;100924.00;;;9.70
12854;BMP180;6495;51.808;7.478;2022-12-20T01:57:39;100914.00;;;9.70
12854;BMP180;6495;51.808;7.478;2022-12-20T02:00:32;100919.00;;;9.70
12854;BMP180;6495;51.808;7.478;2022-12-20T02:03:19;100917.00;;;9.70
12854;BMP180;6495;51.808;7.478;2022-12-20T02:06:17;100912.00;;;9.70
12854;BMP180;6495;51.808;7.478;2022-12-20T02:09:06;100912.00;;;9.70
12854;BMP180;6495;51.808;7.478;2022-12-20T02:12:07;100906.00;;;9.70
12854;BMP180;6495;51.808;7.478;2022-12-20T02:15:11;100907.00;;;9.70
12854;BMP180;6495;51.808;7.478;2022-12-20T02:18:15;100894.00;;;9.70
12854;BMP180;6495;51.808;7.478;2022-12-20T02:21:27;100899.00;;;9.70
12854;BMP180;6495;51.808;7.478;2022-12-20T02:27:53;100896.00;;;9.70
12854;BMP180;6495;51.808;7.478;2022-12-20T02:30:46;100889.00;;;9.70
12854;BMP180;6495;51.808;7.478;2022-12-20T02:33:34;100885.00;;;9.70
12854;BMP180;6495;51.808;7.478;2022-12-20T02:36:21;100888.00;;;9.70
12854;BMP180;6495;51.808;7.478;2022-12-20T02:39:11;100896.00;;;9.70
12854;BMP180;6495;51.808;7.478;2022-12-20T02:42:03;100895.00;;;9.80
12854;BMP180;6495;51.808;7.478;2022-12-20T02:44:56;100885.00;;;9.80
12854;BMP180;6495;51.808;7.478;2022-12-20T02:48:07;100891.00;;;9.80
12854;BMP180;6495;51.808;7.478;2022-12-20T02:50:58;100880.00;;;9.80
12854;BMP180;6495;51.808;7.478;2022-12-20T02:53:46;100875.00;;;9.80
12854;BMP180;6495;51.808;7.478;2022-12-20T02:56:41;100877.00;;;9.80
12854;BMP180;6495;51.808;7.478;2022-12-20T02:59:33;100881.00;;;9.80
12854;BMP180;6495;51.808;7.478;2022-12-20T03:02:24;100886.00;;;9.80
12854;BMP180;6495;51.808;7.478;2022-12-20T03:05:13;100886.00;;;9.90
12854;BMP180;6495;51.808;7.478;2022-12-20T03:08:00;100882.00;;;9.90
12854;BMP180;6495;51.808;7.478;2022-12-20T03:10:47;100881.00;;;9.90
12854;BMP180;6495;51.808;7.478;2022-12-20T03:13:36;100866.00;;;10.00
12854;BMP180;6495;51.808;7.478;2022-12-20T03:16:23;100862.00;;;9.90
12854;BMP180;6495;51.808;7.478;2022-12-20T03:19:10;100870.00;;;9.90
12854;BMP180;6495;51.808;7.478;2022-12-20T03:21:58;100867.00;;;10.00
12854;BMP180;6495;51.808;7.478;2022-12-20T03:24:45;100873.00;;;10.00
12854;BMP180;6495;51.808;7.478;2022-12-20T03:27:32;100857.00;;;9.90
12854;BMP180;6495;51.808;7.478;2022-12-20T03:30:19;100877.00;;;9.90
12854;BMP180;6495;51.808;7.478;2022-12-20T03:33:07;100868.00;;;9.90
12854;BMP180;6495;51.808;7.478;2022-12-20T03:35:54;100890.00;;;9.90
12854;BMP180;6495;51.808;7.478;2022-12-20T03:38:42;100888.00;;;9.90
12854;BMP180;6495;51.808;7.478;2022-12-20T03:41:31;100884.00;;;9.90
12854;BMP180;6495;51.808;7.478;2022-12-20T03:44:18;100885.00;;;9.80
12854;BMP180;6495;51.808;7.478;2022-12-20T03:47:05;100898.00;;;9.80
12854;BMP180;6495;51.808;7.478;2022-12-20T03:49:52;100890.00;;;9.80
12854;BMP180;6495;51.808;7.478;2022-12-20T03:52:38;100889.00;;;9.80
12854;BMP180;6495;51.808;7.478;2022-12-20T03:55:27;100880.00;;;9.80
12854;BMP180;6495;51.808;7.478;2022-12-20T03:58:14;100879.00;;;9.80
12854;BMP180;6495;51.808;7.478;2022-12-20T04:01:01;100868.00;;;9.80
12854;BMP180;6495;51.808;7.478;2022-12-20T04:03:48;100879.00;;;9.80
12854;BMP180;6495;51.808;7.478;2022-12-20T04:06:35;100879.00;;;9.80
12854;BMP180;6495;51.808;7.478;2022-12-20T04:09:22;100863.00;;;9.80
12854;BMP180;6495;51.808;7.478;2022-12-20T04:12:10;100862.00;;;9.90
12854;BMP180;6495;51.808;7.478;2022-12-20T04:14:56;100868.00;;;9.80
12854;BMP180;6495;51.808;7.478;2022-12-20T04:17:43;100850.00;;;9.80
12854;BMP180;6495;51.808;7.478;2022-12-20T04:20:30;100850.00;;;9.80
12854;BMP180;6495;51.808;7.478;2022-12-20T04:23:16;100857.00;;;9.80
12854;BMP180;6495;51.808;7.478;2022-12-20T04:26:05;100847.00;;;9.80
12854;BMP180;6495;51.808;7.478;2022-12-20T04:28:56;100849.00;;;9.80
12854;BMP180;6495;51.808;7.478;2022-12-20T04:31:44;100844.00;;;9.80
12854;BMP180;6495;51.808;7.478;2022-12-20T04:34:30;100830.00;;;9.80
12854;BMP180;6495;51.808;7.478;2022-12-20T04:37:17;100838.00;;;9.80
12854;BMP180;6495;51.808;7.478;2022-12-20T04:40:05;100838.00;;;9.80
12854;BMP180;6495;51.808;7.478;2022-12-20T04:42:53;100843.00;;;9.80
12854;BMP180;6495;51.808;7.478;2022-12-20T04:45:41;100839.00;;;9.80
12854;BMP180;6495;51.808;7.478;2022-12-20T04:48:28;100832.00;;;9.80
12854;BMP180;6495;51.808;7.478;2022-12-20T04:51:34;100839.00;;;9.80
12854;BMP180;6495;51.808;7.478;2022-12-20T04:54:25;100847.00;;;9.80
12854;BMP180;6495;51.808;7.478;2022-12-20T04:57:11;100834.00;;;9.80
12854;BMP180;6495;51.808;7.478;2022-12-20T04:59:57;100848.00;;;9.80
12854;BMP180;6495;51.808;7.478;2022-12-20T05:02:46;100849.00;;;9.80
12854;BMP180;6495;51.808;7.478;2022-12-20T05:05:33;100857.00;;;9.80
12854;BMP180;6495;51.808;7.478;2022-12-20T05:08:20;100849.00;;;9.80
12854;BMP180;6495;51.808;7.478;2022-12-20T05:11:07;100844.00;;;9.80
12854;BMP180;6495;51.808;7.478;2022-12-20T05:13:54;100856.00;;;9.80
12854;BMP180;6495;51.808;7.478;2022-12-20T05:16:41;100854.00;;;9.80
12854;BMP180;6495;51.808;7.478;2022-12-20T05:19:29;100846.00;;;9.80
12854;BMP180;6495;51.808;7.478;2022-12-20T05:22:15;100851.00;;;9.80
12854;BMP180;6495;51.808;7.478;2022-12-20T05:25:20;100837.00;;;9.80
12854;BMP180;6495;51.808;7.478;2022-12-20T05:28:24;100845.00;;;9.80
12854;BMP180;6495;51.808;7.478;2022-12-20T05:31:11;100852.00;;;9.80
12854;BMP180;6495;51.808;7.478;2022-12-20T05:33:58;100857.00;;;9.80
12854;BMP180;6495;51.808;7.478;2022-12-20T05:36:50;100846.00;;;9.80
12854;BMP180;6495;51.808;7.478;2022-12-20T05:39:36;100844.00;;;9.90
12854;BMP180;6495;51.808;7.478;2022-12-20T05:42:23;100836.00;;;9.80
12854;BMP180;6495;51.808;7.478;2022-12-20T05:45:10;100835.00;;;9.80
12854;BMP180;6495;51.808;7.478;2022-12-20T05:47:57;100836.00;;;9.90
12854;BMP180;6495;51.808;7.478;2022-12-20T05:50:44;100832.00;;;9.90
12854;BMP180;6495;51.808;7.478;2022-12-20T05:53:33;100824.00;;;9.80
12854;BMP180;6495;51.808;7.478;2022-12-20T05:56:19;100815.00;;;9.80
12854;BMP180;6495;51.808;7.478;2022-12-20T05:59:06;100818.00;;;9.80
12854;BMP180;6495;51.808;7.478;2022-12-20T06:01:53;100821.00;;;9.80
12854;BMP180;6495;51.808;7.478;2022-12-20T06:04:40;100804.00;;;9.80
12854;BMP180;6495;51.808;7.478;2022-12-20T06:07:28;100818.00;;;9.80
12854;BMP180;6495;51.808;7.478;2022-12-20T06:10:17;100814.00;;;9.80
12854;BMP180;6495;51.808;7.478;2022-12-20T06:13:05;100800.00;;;9.80
12854;BMP180;6495;51.808;7.478;2022-12-20T06:15:52;100793.00;;;9.80
12854;BMP180;6495;51.808;7.478;2022-12-20T06:18:39;100787.00;;;9.80
12854;BMP180;6495;51.808;7.478;2022-12-20T06:21:25;100798.00;;;9.80
12854;BMP180;6495;51.808;7.478;2022-12-20T06:24:13;100806.00;;;9.80
12854;BMP180;6495;51.808;7.478;2022-12-20T06:27:01;100802.00;;;9.80
12854;BMP180;6495;51.808;7.478;2022-12-20T06:29:48;100797.00;;;9.80
12854;BMP180;6495;51.808;7.478;2022-12-20T06:32:38;100786.00;;;9.80
12854;BMP180;6495;51.808;7.478;2022-12-20T06:35:25;100797.00;;;9.80
12854;BMP180;6495;51.808;7.478;2022-12-20T06:38:11;100789.00;;;9.80
12854;BMP180;6495;51.808;7.478;2022-12-20T06:40:58;100791.00;;;9.80
12854;BMP180;6495;51.808;7.478;2022-12-20T06:43:46;100794.00;;;9.80
12854;BMP180;6495;51.808;7.478;2022-12-20T06:46:32;100796.00;;;9.80
12854;BMP180;6495;51.808;7.478;2022-12-20T06:49:19;100788.00;;;9.70
12854;BMP180;6495;51.808;7.478;2022-12-20T06:52:06;100788.00;;;9.70
12854;BMP180;6495;51.808;7.478;2022-12-20T06:54:53;100786.00;;;9.70
12854;BMP180;6495;51.808;7.478;2022-12-20T06:57:39;100778.00;;;9.70
12854;BMP180;6495;51.808;7.478;2022-12-20T07:00:28;100776.00;;;9.70
12854;BMP180;6495;51.808;7.478;2022-12-20T07:03:15;100772.00;;;9.70
12854;BMP180;6495;51.808;7.478;2022-12-20T07:06:02;100772.00;;;9.70
12854;BMP180;6495;51.808;7.478;2022-12-20T07:08:48;100764.00;;;9.70
12854;BMP180;6495;51.808;7.478;2022-12-20T07:11:37;100756.00;;;9.70
12854;BMP180;6495;51.808;7.478;2022-12-20T07:14:23;100759.00;;;9.70
12854;BMP180;6495;51.808;7.478;2022-12-20T07:17:12;100759.00;;;9.70
12854;BMP180;6495;51.808;7.478;2022-12-20T07:19:59;100756.00;;;9.70
12854;BMP180;6495;51.808;7.478;2022-12-20T07:22:46;100762.00;;;9.70
12854;BMP180;6495;51.808;7.478;2022-12-20T07:25:33;100754.00;;;9.70
12854;BMP180;6495;51.808;7.478;2022-12-20T07:28:22;100750.00;;;9.70
12854;BMP180;6495;51.808;7.478;2022-12-20T07:31:11;100754.00;;;9.70
12854;BMP180;6495;51.808;7.478;2022-12-20T07:33:59;100755.00;;;9.70
12854;BMP180;6495;51.808;7.478;2022-12-20T07:36:45;100756.00;;;9.70
12854;BMP180;6495;51.808;7.478;2022-12-20T07:39:32;100757.00;;;9.80
12854;BMP180;6495;51.808;7.478;2022-12-20T07:42:19;100758.00;;;9.80
12854;BMP180;6495;51.808;7.478;2022-12-20T07:45:06;100755.00;;;9.80
12854;BMP180;6495;51.808;7.478;2022-12-20T07:47:53;100739.00;;;9.80
12854;BMP180;6495;51.808;7.478;2022-12-20T07:50:43;100743.00;;;9.80
12854;BMP180;6495;51.808;7.478;2022-12-20T07:53:31;100743.00;;;9.80
12854;BMP180;6495;51.808;7.478;2022-12-20T07:56:21;100753.00;;;9.90
12854;BMP180;6495;51.808;7.478;2022-12-20T07:59:10;100747.00;;;9.90
12854;BMP180;6495;51.808;7.478;2022-12-20T08:01:58;100747.00;;;9.90
12854;BMP180;6495;51.808;7.478;2022-12-20T08:04:49;100740.00;;;9.90
12854;BMP180;6495;51.808;7.478;2022-12-20T08:07:39;100750.00;;;9.90
12854;BMP180;6495;51.808;7.478;2022-12-20T08:10:27;100741.00;;;9.90
12854;BMP180;6495;51.808;7.478;2022-12-20T08:13:15;100736.00;;;10.00
12854;BMP180;6495;51.808;7.478;2022-12-20T08:16:03;100731.00;;;10.00
12854;BMP180;6495;51.808;7.478;2022-12-20T08:18:50;100726.00;;;10.00
12854;BMP180;6495;51.808;7.478;2022-12-20T08:21:37;100720.00;;;10.00
12854;BMP180;6495;51.808;7.478;2022-12-20T08:24:25;100734.00;;;10.00
12854;BMP180;6495;51.808;7.478;2022-12-20T08:27:11;100728.00;;;10.10
12854;BMP180;6495;51.808;7.478;2022-12-20T08:29:58;100729.00;;;10.10
12854;BMP180;6495;51.808;7.478;2022-12-20T08:32:45;100742.00;;;10.10
12854;BMP180;6495;51.808;7.478;2022-12-20T08:35:31;100736.00;;;10.20
12854;BMP180;6495;51.808;7.478;2022-12-20T08:38:18;100728.00;;;10.20
12854;BMP180;6495;51.808;7.478;2022-12-20T08:41:09;100728.00;;;10.20
12854;BMP180;6495;51.808;7.478;2022-12-20T08:43:56;100730.00;;;10.20
12854;BMP180;6495;51.808;7.478;2022-12-20T08:46:43;100719.00;;;10.30
12854;BMP180;6495;51.808;7.478;2022-12-20T08:49:30;100712.00;;;10.30
12854;BMP180;6495;51.808;7.478;2022-12-20T08:52:19;100716.00;;;10.30
12854;BMP180;6495;51.808;7.478;2022-12-20T08:55:07;100717.00;;;10.40
12854;BMP180;6495;51.808;7.478;2022-12-20T08:57:58;100706.00;;;10.40
12854;BMP180;6495;51.808;7.478;2022-12-20T09:00:46;100717.00;;;10.50
12854;BMP180;6495;51.808;7.478;2022-12-20T09:03:34;100713.00;;;10.50
12854;BMP180;6495;51.808;7.478;2022-12-20T09:06:22;100729.00;;;10.60
12854;BMP180;6495;51.808;7.478;2022-12-20T09:09:08;100720.00;;;10.60
12854;BMP180;6495;51.808;7.478;2022-12-20T09:11:56;100716.00;;;10.60
12854;BMP180;6495;51.808;7.478;2022-12-20T09:14:44;100729.00;;;10.60
12854;BMP180;6495;51.808;7.478;2022-12-20T09:17:30;100726.00;;;10.60
12854;BMP180;6495;51.808;7.478;2022-12-20T09:20:17;100724.00;;;10.70
12854;BMP180;6495;51.808;7.478;2022-12-20T09:23:04;100710.00;;;10.70
12854;BMP180;6495;51.808;7.478;2022-12-20T09:25:51;100719.00;;;10.70
12854;BMP180;6495;51.808;7.478;2022-12-20T09:28:38;100720.00;;;10.70
12854;BMP180;6495;51.808;7.478;2022-12-20T09:31:27;100710.00;;;10.80
12854;BMP180;6495;51.808;7.478;2022-12-20T09:34:16;100711.00;;;10.80
12854;BMP180;6495;51.808;7.478;2022-12-20T09:37:03;100721.00;;;10.80
12854;BMP180;6495;51.808;7.478;2022-12-20T09:39:49;100732.00;;;10.80
12854;BMP180;6495;51.808;7.478;2022-12-20T09:42:36;100719.00;;;10.90
12854;BMP180;6495;51.808;7.478;2022-12-20T09:45:27;100724.00;;;10.90
12854;BMP180;6495;51.808;7.478;2022-12-20T09:48:21;100736.00;;;10.90
12854;BMP180;6495;51.808;7.478;2022-12-20T09:51:28;100740.00;;;11.00
12854;BMP180;6495;51.808;7.478;2022-12-20T09:54:26;100737.00;;;11.00
12854;BMP180;6495;51.808;7.478;2022-12-20T09:57:24;100729.00;;;11.00
12854;BMP180;6495;51.808;7.478;2022-12-20T10:00:17;100732.00;;;11.00
12854;BMP180;6495;51.808;7.478;2022-12-20T10:03:05;100720.00;;;11.10
12854;BMP180;6495;51.808;7.478;2022-12-20T10:06:02;100728.00;;;11.10
12854;BMP180;6495;51.808;7.478;2022-12-20T10:08:58;100727.00;;;11.10
12854;BMP180;6495;51.808;7.478;2022-12-20T10:12:01;100737.00;;;11.20
12854;BMP180;6495;51.808;7.478;2022-12-20T10:15:09;100726.00;;;11.20
12854;BMP180;6495;51.808;7.478;2022-12-20T10:18:26;100723.00;;;11.30
12854;BMP180;6495;51.808;7.478;2022-12-20T10:21:32;100721.00;;;11.30
12854;BMP180;6495;51.808;7.478;2022-12-20T10:24:28;100719.00;;;11.30
12854;BMP180;6495;51.808;7.478;2022-12-20T10:27:18;100710.00;;;11.30
12854;BMP180;6495;51.808;7.478;2022-12-20T10:30:12;100709.00;;;11.40
12854;BMP180;6495;51.808;7.478;2022-12-20T10:33:00;100715.00;;;11.40
12854;BMP180;6495;51.808;7.478;2022-12-20T10:35:48;100705.00;;;11.30
12854;BMP180;6495;51.808;7.478;2022-12-20T10:38:44;100692.00;;;11.30
12854;BMP180;6495;51.808;7.478;2022-12-20T10:41:45;100694.00;;;11.30
12854;BMP180;6495;51.808;7.478;2022-12-20T10:44:33;100689.00;;;11.30
12854;BMP180;6495;51.808;7.478;2022-12-20T10:47:34;100682.00;;;11.30
12854;BMP180;6495;51.808;7.478;2022-12-20T10:50:23;100675.00;;;11.30
12854;BMP180;6495;51.808;7.478;2022-12-20T10:53:21;100672.00;;;11.30
12854;BMP180;6495;51.808;7.478;2022-12-20T10:56:18;100667.00;;;11.30
12854;BMP180;6495;51.808;7.478;2022-12-20T10:59:29;100664.00;;;11.30
12854;BMP180;6495;51.808;7.478;2022-12-20T11:02:26;100661.00;;;11.30
12854;BMP180;6495;51.808;7.478;2022-12-20T11:05:25;100658.00;;;11.30
12854;BMP180;6495;51.808;7.478;2022-12-20T11:08:16;100645.00;;;11.30
12854;BMP180;6495;51.808;7.478;2022-12-20T11:11:24;100654.00;;;11.30
12854;BMP180;6495;51.808;7.478;2022-12-20T11:14:14;100646.00;;;11.40
12854;BMP180;6495;51.808;7.478;2022-12-20T11:17:14;100642.00;;;11.40
12854;BMP180;6495;51.808;7.478;2022-12-20T11:20:24;100643.00;;;11.40
12854;BMP180;6495;51.808;7.478;2022-12-20T11:23:25;100640.00;;;11.40
12854;BMP180;6495;51.808;7.478;2022-12-20T11:26:32;100635.00;;;11.40
12854;BMP180;6495;51.808;7.478;2022-12-20T11:29:40;100635.00;;;11.50
12854;BMP180;6495;51.808;7.478;2022-12-20T11:32:56;100624.00;;;11.50
12854;BMP180;6495;51.808;7.478;2022-12-20T11:35:55;100624.00;;;11.50
12854;BMP180;6495;51.808;7.478;2022-12-20T11:38:51;100615.00;;;11.50
12854;BMP180;6495;51.808;7.478;2022-12-20T11:41:49;100618.00;;;11.50
12854;BMP180;6495;51.808;7.478;2022-12-20T11:44:55;100614.00;;;11.50
12854;BMP180;6495;51.808;7.478;2022-12-20T11:48:13;100619.00;;;11.60
12854;BMP180;6495;51.808;7.478;2022-12-20T11:51:04;100607.00;;;11.60
12854;BMP180;6495;51.808;7.478;2022-12-20T11:54:08;100613.00;;;11.60
12854;BMP180;6495;51.808;7.478;2022-12-20T11:57:03;100603.00;;;11.70
12854;BMP180;6495;51.808;7.478;2022-12-20T11:59:59;100612.00;;;11.60
12854;BMP180;6495;51.808;7.478;2022-12-20T12:02:53;100612.00;;;11.60
12854;BMP180;6495;51.808;7.478;2022-12-20T12:05:47;100609.00;;;11.60
12854;BMP180;6495;51.808;7.478;2022-12-20T12:08:44;100596.00;;;11.60
12854;BMP180;6495;51.808;7.478;2022-12-20T12:11:39;100591.00;;;11.60
12854;BMP180;6495;51.808;7.478;2022-12-20T12:14:58;100597.00;;;11.60
12854;BMP180;6495;51.808;7.478;2022-12-20T12:17:51;100592.00;;;11.60
12854;BMP180;6495;51.808;7.478;2022-12-20T12:20:52;100597.00;;;11.60
12854;BMP180;6495;51.808;7.478;2022-12-20T12:23:50;100608.00;;;11.60
12854;BMP180;6495;51.808;7.478;2022-12-20T12:26:40;100610.00;;;11.60
12854;BMP180;6495;51.808;7.478;2022-12-20T12:29:28;100612.00;;;11.60
12854;BMP180;6495;51.808;7.478;2022-12-20T12:32:26;100609.00;;;11.70
12854;BMP180;6495;51.808;7.478;2022-12-20T12:35:56;100602.00;;;11.60
12854;BMP180;6495;51.808;7.478;2022-12-20T12:39:35;100605.00;;;11.70
12854;BMP180;6495;51.808;7.478;2022-12-20T12:45:54;100602.00;;;11.70
12854;BMP180;6495;51.808;7.478;2022-12-20T12:48:51;100599.00;;;11.70
12854;BMP180;6495;51.808;7.478;2022-12-20T12:51:49;100598.00;;;11.70
12854;BMP180;6495;51.808;7.478;2022-12-20T12:54:39;100603.00;;;11.70
12854;BMP180;6495;51.808;7.478;2022-12-20T12:57:28;100594.00;;;11.70
12854;BMP180;6495;51.808;7.478;2022-12-20T13:00:54;100597.00;;;11.70
12854;BMP180;6495;51.808;7.478;2022-12-20T13:04:22;100595.00;;;11.70
12854;BMP180;6495;51.808;7.478;2022-12-20T13:07:40;100596.00;;;11.70
12854;BMP180;6495;51.808;7.478;2022-12-20T13:11:10;100583.00;;;11.70
12854;BMP180;6495;51.808;7.478;2022-12-20T13:14:11;100578.00;;;11.70
12854;BMP180;6495;51.808;7.478;2022-12-20T13:17:46;100576.00;;;11.70
12854;BMP180;6495;51.808;7.478;2022-12-20T13:20:37;100564.00;;;11.70
12854;BMP180;6495;51.808;7.478;2022-12-20T13:23:26;100565.00;;;11.60
12854;BMP180;6495;51.808;7.478;2022-12-20T13:26:51;100573.00;;;11.70
12854;BMP180;6495;51.808;7.478;2022-12-20T13:29:54;100573.00;;;11.70
12854;BMP180;6495;51.808;7.478;2022-12-20T13:39:33;100580.00;;;11.60
12854;BMP180;6495;51.808;7.478;2022-12-20T13:42:36;100574.00;;;11.60
12854;BMP180;6495;51.808;7.478;2022-12-20T13:45:25;100578.00;;;11.60
12854;BMP180;6495;51.808;7.478;2022-12-20T13:48:18;100570.00;;;11.70
12854;BMP180;6495;51.808;7.478;2022-12-20T13:51:08;100570.00;;;11.60
12854;BMP180;6495;51.808;7.478;2022-12-20T13:53:57;100577.00;;;11.70
12854;BMP180;6495;51.808;7.478;2022-12-20T13:56:47;100574.00;;;11.70
12854;BMP180;6495;51.808;7.478;2022-12-20T13:59:34;100573.00;;;11.70
12854;BMP180;6495;51.808;7.478;2022-12-20T14:02:25;100575.00;;;11.60
12854;BMP180;6495;51.808;7.478;2022-12-20T14:05:18;100583.00;;;11.60
12854;BMP180;6495;51.808;7.478;2022-12-20T14:08:13;100590.00;;;11.60
12854;BMP180;6495;51.808;7.478;2022-12-20T14:11:11;100590.00;;;11.60
12854;BMP180;6495;51.808;7.478;2022-12-20T14:14:01;100598.00;;;11.60
12854;BMP180;6495;51.808;7.478;2022-12-20T14:16:48;100600.00;;;11.60
12854;BMP180;6495;51.808;7.478;2022-12-20T14:19:35;100605.00;;;11.60
12854;BMP180;6495;51.808;7.478;2022-12-20T14:22:21;100602.00;;;11.50
12854;BMP180;6495;51.808;7.478;2022-12-20T14:25:25;100602.00;;;11.50
12854;BMP180;6495;51.808;7.478;2022-12-20T14:28:24;100602.00;;;11.40
12854;BMP180;6495;51.808;7.478;2022-12-20T14:31:24;100609.00;;;11.40
12854;BMP180;6495;51.808;7.478;2022-12-20T14:34:15;100603.00;;;11.30
12854;BMP180;6495;51.808;7.478;2022-12-20T14:37:27;100607.00;;;11.30
12854;BMP180;6495;51.808;7.478;2022-12-20T14:40:19;100598.00;;;11.30
12854;BMP180;6495;51.808;7.478;2022-12-20T14:43:14;100591.00;;;11.20
12854;BMP180;6495;51.808;7.478;2022-12-20T14:46:16;100598.00;;;11.20
12854;BMP180;6495;51.808;7.478;2022-12-20T14:49:16;100603.00;;;11.20
12854;BMP180;6495;51.808;7.478;2022-12-20T14:52:10;100607.00;;;11.20
12854;BMP180;6495;51.808;7.478;2022-12-20T14:55:05;100592.00;;;11.20
12854;BMP180;6495;51.808;7.478;2022-12-20T14:57:57;100588.00;;;11.10
12854;BMP180;6495;51.808;7.478;2022-12-20T15:00:56;100587.00;;;11.10
12854;BMP180;6495;51.808;7.478;2022-12-20T15:03:49;100588.00;;;11.10
12854;BMP180;6495;51.808;7.478;2022-12-20T15:06:42;100587.00;;;11.00
12854;BMP180;6495;51.808;7.478;2022-12-20T15:09:29;100576.00;;;11.10
12854;BMP180;6495;51.808;7.478;2022-12-20T15:12:16;100576.00;;;11.00
12854;BMP180;6495;51.808;7.478;2022-12-20T15:15:12;100574.00;;;11.00
12854;BMP180;6495;51.808;7.478;2022-12-20T15:18:20;100564.00;;;10.90
12854;BMP180;6495;51.808;7.478;2022-12-20T15:21:13;100570.00;;;10.90
12854;BMP180;6495;51.808;7.478;2022-12-20T15:24:05;100566.00;;;11.00
12854;BMP180;6495;51.808;7.478;2022-12-20T15:26:57;100561.00;;;11.00
12854;BMP180;6495;51.808;7.478;2022-12-20T15:29:44;100555.00;;;10.90
12854;BMP180;6495;51.808;7.478;2022-12-20T15:32:35;100563.00;;;10.90
12854;BMP180;6495;51.808;7.478;2022-12-20T15:35:32;100561.00;;;10.90
12854;BMP180;6495;51.808;7.478;2022-12-20T15:38:21;100555.00;;;10.90
12854;BMP180;6495;51.808;7.478;2022-12-20T15:41:32;100554.00;;;10.90
12854;BMP180;6495;51.808;7.478;2022-12-20T15:44:22;100555.00;;;10.90
12854;BMP180;6495;51.808;7.478;2022-12-20T15:47:12;100557.00;;;10.90
12854;BMP180;6495;51.808;7.478;2022-12-20T15:50:00;100556.00;;;10.90
12854;BMP180;6495;51.808;7.478;2022-12-20T15:52:46;100550.00;;;10.90
12854;BMP180;6495;51.808;7.478;2022-12-20T15:55:34;100542.00;;;10.90
12854;BMP180;6495;51.808;7.478;2022-12-20T15:58:26;100539.00;;;10.90
12854;BMP180;6495;51.808;7.478;2022-12-20T16:01:16;100542.00;;;10.90
12854;BMP180;6495;51.808;7.478;2022-12-20T16:04:05;100540.00;;;10.90
12854;BMP180;6495;51.808;7.478;2022-12-20T16:06:54;100546.00;;;10.80
12854;BMP180;6495;51.808;7.478;2022-12-20T16:09:40;100534.00;;;10.80
12854;BMP180;6495;51.808;7.478;2022-12-20T16:12:31;100542.00;;;10.80
12854;BMP180;6495;51.808;7.478;2022-12-20T16:15:20;100539.00;;;10.80
12854;BMP180;6495;51.808;7.478;2022-12-20T16:18:08;100532.00;;;10.80
12854;BMP180;6495;51.808;7.478;2022-12-20T16:20:55;100539.00;;;10.80
12854;BMP180;6495;51.808;7.478;2022-12-20T16:23:45;100535.00;;;10.80
12854;BMP180;6495;51.808;7.478;2022-12-20T16:26:32;100540.00;;;10.80
12854;BMP180;6495;51.808;7.478;2022-12-20T16:29:19;100536.00;;;10.80
12854;BMP180;6495;51.808;7.478;2022-12-20T16:32:13;100543.00;;;10.80
12854;BMP180;6495;51.808;7.478;2022-12-20T16:35:00;100538.00;;;10.80
12854;BMP180;6495;51.808;7.478;2022-12-20T16:37:47;100549.00;;;10.90
12854;BMP180;6495;51.808;7.478;2022-12-20T16:40:35;100551.00;;;10.90
12854;BMP180;6495;51.808;7.478;2022-12-20T16:43:22;100555.00;;;10.90
12854;BMP180;6495;51.808;7.478;2022-12-20T16:46:10;100547.00;;;10.90
12854;BMP180;6495;51.808;7.478;2022-12-20T16:48:59;100547.00;;;10.90
12854;BMP180;6495;51.808;7.478;2022-12-20T16:51:47;100547.00;;;11.00